createdAt,value
2019-01-15T00:00:27.624Z,83.13
2019-01-15T00:02:56.652Z,83.30
2019-01-15T00:05:25.584Z,83.53
2019-01-15T00:07:54.576Z,83.71
2019-01-15T00:10:23.452Z,83.39
2019-01-15T00:12:52.404Z,83.47
2019-01-15T00:15:21.434Z,83.40
2019-01-15T00:17:51.315Z,83.94
2019-01-15T00:20:20.241Z,83.46
2019-01-15T00:22:49.184Z,83.61
2019-01-15T00:25:18.125Z,82.56
2019-01-15T00:27:47.047Z,81.10
2019-01-15T00:30:16.755Z,82.09
2019-01-15T00:32:45.660Z,82.36
2019-01-15T00:35:14.664Z,83.11
2019-01-15T00:37:43.611Z,82.72
2019-01-15T00:40:14.460Z,82.91
2019-01-15T00:42:43.368Z,82.81
2019-01-15T00:45:14.806Z,82.91
2019-01-15T00:47:41.254Z,83.45
2019-01-15T00:50:11.755Z,83.94
2019-01-15T00:52:40.634Z,83.34
2019-01-15T00:55:10.373Z,82.64
2019-01-15T00:57:40.958Z,83.11
2019-01-15T01:00:14.589Z,82.78
2019-01-15T01:02:43.503Z,82.95
2019-01-15T01:05:12.385Z,83.10
2019-01-15T01:07:41.289Z,83.06
2019-01-15T01:10:13.157Z,83.10
2019-01-15T01:12:42.097Z,82.61
2019-01-15T01:15:12.250Z,82.51
2019-01-15T01:17:41.236Z,80.77
2019-01-15T01:20:11.585Z,81.52
2019-01-15T01:22:40.514Z,82.03
2019-01-15T01:25:10.698Z,82.07
2019-01-15T01:27:39.767Z,81.79
2019-01-15T01:30:12.640Z,81.74
2019-01-15T01:32:41.621Z,81.80
2019-01-15T01:35:10.646Z,82.62
2019-01-15T01:37:39.546Z,80.22
2019-01-15T01:40:10.857Z,81.62
2019-01-15T01:42:39.906Z,82.24
2019-01-15T01:45:10.082Z,80.76
2019-01-15T01:47:39.049Z,81.76
2019-01-15T01:50:08.713Z,81.56
2019-01-15T01:52:37.669Z,79.60
2019-01-15T01:55:07.533Z,81.01
2019-01-15T01:57:36.476Z,81.46
2019-01-15T02:00:09.202Z,81.62
2019-01-15T02:02:36.787Z,81.07
2019-01-15T02:05:06.051Z,80.28
2019-01-15T02:07:34.936Z,78.55
2019-01-15T02:10:03.990Z,77.92
2019-01-15T02:12:36.774Z,79.38
2019-01-15T02:15:01.882Z,80.13
2019-01-15T02:17:30.829Z,80.18
2019-01-15T02:19:59.864Z,80.62
2019-01-15T02:22:28.715Z,80.53
2019-01-15T02:24:57.592Z,80.98
2019-01-15T02:27:26.537Z,81.65
2019-01-15T02:29:55.431Z,81.74
2019-01-15T02:32:24.479Z,82.09
2019-01-15T02:34:53.332Z,81.40
2019-01-15T02:37:22.299Z,81.97
2019-01-15T02:39:51.180Z,82.44
2019-01-15T02:42:20.108Z,82.61
2019-01-15T02:44:48.992Z,82.57
2019-01-15T02:47:18.022Z,83.15
2019-01-15T02:49:46.934Z,82.53
2019-01-15T02:52:15.794Z,83.08
2019-01-15T02:54:47.388Z,83.51
2019-01-15T02:57:16.289Z,83.73
2019-01-15T02:59:45.185Z,83.89
2019-01-15T03:02:14.128Z,84.15
2019-01-15T03:04:43.004Z,85.15
2019-01-15T03:07:11.922Z,84.58
2019-01-15T03:09:40.826Z,84.67
2019-01-15T03:12:09.820Z,85.70
2019-01-15T03:14:38.678Z,85.96
2019-01-15T03:17:07.614Z,86.18
2019-01-15T03:19:36.562Z,86.17
2019-01-15T03:22:05.509Z,87.39
2019-01-15T03:24:34.392Z,86.96
2019-01-15T03:27:03.288Z,87.39
2019-01-15T03:29:32.226Z,87.46
2019-01-15T03:32:01.238Z,87.14
2019-01-15T03:34:30.055Z,87.00
2019-01-15T03:36:59.009Z,86.58
2019-01-15T03:39:27.967Z,87.09
2019-01-15T03:41:56.878Z,87.42
2019-01-15T03:44:25.806Z,87.52
2019-01-15T03:46:57.231Z,87.64
2019-01-15T03:49:26.185Z,87.70
2019-01-15T03:51:55.095Z,87.33
2019-01-15T03:54:24.073Z,87.05
2019-01-15T03:56:52.925Z,88.34
2019-01-15T03:59:21.850Z,88.00
2019-01-15T04:01:50.855Z,88.64
2019-01-15T04:04:19.781Z,89.03
2019-01-15T04:06:48.706Z,89.14
2019-01-15T04:09:19.325Z,88.97
2019-01-15T04:11:48.176Z,89.06
2019-01-15T04:14:17.150Z,88.93
2019-01-15T04:16:46.061Z,88.80
2019-01-15T04:19:14.954Z,88.58
2019-01-15T04:21:43.865Z,88.60
2019-01-15T04:24:12.894Z,88.94
2019-01-15T04:26:41.774Z,88.71
2019-01-15T04:29:10.744Z,88.31
2019-01-15T04:31:39.586Z,88.46
2019-01-15T04:34:08.527Z,87.28
2019-01-15T04:36:37.470Z,88.03
2019-01-15T04:39:07.792Z,88.04
2019-01-15T04:41:36.702Z,88.39
2019-01-15T04:44:05.625Z,87.74
2019-01-15T04:46:34.561Z,87.73
2019-01-15T04:49:03.525Z,87.92
2019-01-15T04:51:32.430Z,88.29
2019-01-15T04:54:01.268Z,87.90
2019-01-15T04:56:30.277Z,88.38
2019-01-15T04:58:59.118Z,88.32
2019-01-15T05:01:29.607Z,87.04
2019-01-15T05:03:58.540Z,87.51
2019-01-15T05:06:27.468Z,87.62
2019-01-15T05:08:56.423Z,87.85
2019-01-15T05:11:25.344Z,87.86
2019-01-15T05:13:56.929Z,87.53
2019-01-15T05:16:25.874Z,88.11
2019-01-15T05:18:54.761Z,88.24
2019-01-15T05:21:23.673Z,87.21
2019-01-15T05:23:52.680Z,87.87
2019-01-15T05:26:21.639Z,88.32
2019-01-15T05:28:50.663Z,88.66
2019-01-15T05:31:19.585Z,88.51
2019-01-15T05:33:48.483Z,88.29
2019-01-15T05:36:17.405Z,88.45
2019-01-15T05:38:46.333Z,88.56
2019-01-15T05:41:15.253Z,88.69
2019-01-15T05:43:44.221Z,88.59
2019-01-15T05:46:13.164Z,88.30
2019-01-15T05:48:42.147Z,88.34
2019-01-15T05:51:23.494Z,88.38
2019-01-15T05:53:52.414Z,88.31
2019-01-15T05:56:23.992Z,88.67
2019-01-15T05:58:52.969Z,88.81
2019-01-15T06:01:21.799Z,88.05
2019-01-15T06:03:50.725Z,88.39
2019-01-15T06:06:19.676Z,88.80
2019-01-15T06:08:48.599Z,88.52
2019-01-15T06:11:17.508Z,88.45
2019-01-15T06:13:46.427Z,88.32
2019-01-15T06:16:15.355Z,88.56
2019-01-15T06:18:44.294Z,88.35
2019-01-15T06:21:13.345Z,88.23
2019-01-15T06:23:42.348Z,88.71
2019-01-15T06:26:13.804Z,88.55
2019-01-15T06:28:40.378Z,88.43
2019-01-15T06:31:09.340Z,87.88
2019-01-15T06:33:38.380Z,88.36
2019-01-15T06:36:07.424Z,88.49
2019-01-15T06:38:36.510Z,88.37
2019-01-15T06:41:05.361Z,88.57
2019-01-15T06:43:37.041Z,88.03
2019-01-15T06:46:05.995Z,87.71
2019-01-15T06:48:34.913Z,87.99
2019-01-15T06:51:03.842Z,88.81
2019-01-15T06:53:32.774Z,88.10
2019-01-15T06:56:01.726Z,89.07
2019-01-15T06:58:30.685Z,88.18
2019-01-15T07:00:59.691Z,88.30
2019-01-15T07:03:28.594Z,88.73
2019-01-15T07:05:57.564Z,88.87
2019-01-15T07:08:26.466Z,89.02
2019-01-15T07:10:55.442Z,88.69
2019-01-15T07:13:24.467Z,88.17
2019-01-15T07:15:53.534Z,88.59
2019-01-15T07:18:22.562Z,88.64
2019-01-15T07:20:53.633Z,88.58
2019-01-15T07:23:24.938Z,88.27
2019-01-15T07:25:51.621Z,87.69
2019-01-15T07:28:20.664Z,88.54
2019-01-15T07:30:52.144Z,87.21
2019-01-15T07:33:24.091Z,88.04
2019-01-15T07:35:53.254Z,87.92
2019-01-15T07:38:22.238Z,87.58
2019-01-15T07:40:51.335Z,87.90
2019-01-15T07:43:20.413Z,87.76
2019-01-15T07:45:49.482Z,87.82
2019-01-15T07:48:18.514Z,87.16
2019-01-15T07:50:47.340Z,87.78
2019-01-15T07:53:16.331Z,87.63
2019-01-15T07:55:45.288Z,87.72
2019-01-15T07:58:14.382Z,88.00
2019-01-15T08:00:43.347Z,88.16
2019-01-15T08:03:12.225Z,88.30
2019-01-15T08:05:41.206Z,87.88
2019-01-15T08:08:10.235Z,88.08
2019-01-15T08:10:39.280Z,88.21
2019-01-15T08:13:08.393Z,87.59
2019-01-15T08:15:37.355Z,87.69
2019-01-15T08:18:06.406Z,86.82
2019-01-15T08:20:35.347Z,87.74
2019-01-15T08:23:04.326Z,87.31
2019-01-15T08:25:33.341Z,87.39
2019-01-15T08:28:02.266Z,87.29
2019-01-15T08:30:33.683Z,87.29
2019-01-15T08:33:02.679Z,87.29
2019-01-15T08:35:31.631Z,87.00
2019-01-15T08:38:00.595Z,86.81
2019-01-15T08:40:29.584Z,85.45
2019-01-15T08:43:12.375Z,86.21
2019-01-15T08:45:49.431Z,85.83
2019-01-15T08:48:20.630Z,85.48
2019-01-15T08:50:53.254Z,84.86
2019-01-15T08:53:30.697Z,84.00
2019-01-15T08:56:02.535Z,85.00
2019-01-15T08:58:40.474Z,85.12
2019-01-15T09:01:30.050Z,85.06
2019-01-15T09:04:05.345Z,84.86
2019-01-15T09:06:42.602Z,84.97
2019-01-15T09:09:42.781Z,84.90
2019-01-15T09:12:16.337Z,83.46
2019-01-15T09:14:51.071Z,84.26
2019-01-15T09:17:24.103Z,84.00
2019-01-15T09:20:06.900Z,84.03
2019-01-15T09:22:34.135Z,83.70
2019-01-15T09:25:06.420Z,83.79
2019-01-15T09:28:53.010Z,84.42
2019-01-15T09:31:20.138Z,83.71
2019-01-15T09:33:50.875Z,83.42
2019-01-15T09:36:20.990Z,83.93
2019-01-15T09:39:01.926Z,83.38
2019-01-15T09:41:41.546Z,82.89
2019-01-15T09:44:13.808Z,83.43
2019-01-15T09:46:46.646Z,83.19
2019-01-15T09:49:26.543Z,83.22
2019-01-15T09:52:00.345Z,82.88
2019-01-15T09:54:35.386Z,82.50
2019-01-15T09:57:23.729Z,82.58
2019-01-15T09:59:55.103Z,82.32
2019-01-15T10:02:35.646Z,82.88
2019-01-15T10:05:08.695Z,82.72
2019-01-15T10:07:48.541Z,82.41
2019-01-15T10:10:24.087Z,81.83
2019-01-15T10:13:01.293Z,82.43
2019-01-15T10:15:47.820Z,82.40
2019-01-15T10:18:23.394Z,81.88
2019-01-15T10:21:00.420Z,82.02
2019-01-15T10:23:26.544Z,82.31
2019-01-15T10:25:56.395Z,82.10
2019-01-15T10:28:31.151Z,80.96
2019-01-15T10:31:41.106Z,81.68
2019-01-15T10:34:27.690Z,79.59
2019-01-15T10:36:58.099Z,80.58
2019-01-15T10:39:27.764Z,81.12
2019-01-15T10:42:01.585Z,81.25
2019-01-15T10:44:32.166Z,80.70
2019-01-15T10:47:30.481Z,81.18
2019-01-15T10:50:02.088Z,81.01
2019-01-15T10:52:39.143Z,81.01
2019-01-15T10:55:11.346Z,81.15
2019-01-15T10:57:54.571Z,81.31
2019-01-15T11:00:26.479Z,81.38
2019-01-15T11:03:05.558Z,81.63
2019-01-15T11:05:42.897Z,81.35
2019-01-15T11:08:24.992Z,81.25
2019-01-15T11:11:04.457Z,81.32
2019-01-15T11:13:36.329Z,81.84
2019-01-15T11:16:10.108Z,81.53
2019-01-15T11:18:46.493Z,80.68
2019-01-15T11:21:46.530Z,81.20
2019-01-15T11:24:22.554Z,81.21
2019-01-15T11:26:58.085Z,81.64
2019-01-15T11:29:33.658Z,80.97
2019-01-15T11:32:05.525Z,80.98
2019-01-15T11:34:36.633Z,81.33
2019-01-15T11:37:14.516Z,80.24
2019-01-15T11:39:52.392Z,80.74
2019-01-15T11:42:26.335Z,80.51
2019-01-15T11:45:03.598Z,80.96
2019-01-15T11:47:35.944Z,80.93
2019-01-15T11:50:14.244Z,81.05
2019-01-15T11:52:43.866Z,81.04
2019-01-15T11:55:16.247Z,80.69
2019-01-15T11:57:53.111Z,81.01
2019-01-15T12:00:35.819Z,81.21
2019-01-15T12:03:27.013Z,81.29
2019-01-15T12:06:21.494Z,80.33
2019-01-15T12:09:25.769Z,81.27
2019-01-15T12:12:37.258Z,81.44
2019-01-15T12:15:26.261Z,81.92
2019-01-15T12:18:15.769Z,81.10
2019-01-15T12:21:15.426Z,81.33
2019-01-15T12:24:21.579Z,81.24
2019-01-15T12:27:22.104Z,81.38
2019-01-15T12:30:31.554Z,81.05
2019-01-15T12:33:31.146Z,81.79
2019-01-15T12:36:21.444Z,81.84
2019-01-15T12:39:11.642Z,81.80
2019-01-15T12:42:12.546Z,82.10
2019-01-15T12:45:18.054Z,82.31
2019-01-15T12:48:37.844Z,81.56
2019-01-15T12:51:30.830Z,80.90
2019-01-15T12:54:37.059Z,79.67
2019-01-15T12:57:21.524Z,80.51
2019-01-15T13:00:12.657Z,79.30
2019-01-15T13:03:10.493Z,80.11
2019-01-15T13:06:03.410Z,80.79
2019-01-15T13:08:54.392Z,80.42
2019-01-15T13:11:56.498Z,80.28
2019-01-15T13:14:43.313Z,80.12
2019-01-15T13:17:38.064Z,79.95
2019-01-15T13:20:32.440Z,80.57
2019-01-15T13:23:20.728Z,80.12
2019-01-15T13:26:27.070Z,79.92
2019-01-15T13:29:19.893Z,80.23
2019-01-15T13:32:13.583Z,80.07
2019-01-15T13:35:07.082Z,80.18
2019-01-15T13:37:52.140Z,80.12
2019-01-15T13:40:50.616Z,79.69
2019-01-15T13:43:50.444Z,78.62
2019-01-15T13:46:57.596Z,79.75
2019-01-15T13:49:51.666Z,79.18
2019-01-15T13:52:35.996Z,79.01
2019-01-15T13:55:31.101Z,78.85
2019-01-15T13:58:17.630Z,78.84
2019-01-15T14:01:17.349Z,78.91
2019-01-15T14:04:08.969Z,78.70
2019-01-15T14:06:57.805Z,78.74
2019-01-15T14:10:08.623Z,78.39
2019-01-15T14:12:43.505Z,77.33
2019-01-15T14:15:33.699Z,78.46
2019-01-15T14:18:27.555Z,78.55
2019-01-15T14:21:17.437Z,78.75
2019-01-15T14:24:00.599Z,78.76
2019-01-15T14:26:52.439Z,78.49
2019-01-15T14:29:52.098Z,79.35
2019-01-15T14:32:31.555Z,79.02
2019-01-15T14:35:23.154Z,78.79
2019-01-15T14:38:21.455Z,79.02
2019-01-15T14:41:09.913Z,79.51
2019-01-15T14:44:32.788Z,78.59
2019-01-15T14:47:34.709Z,79.26
2019-01-15T14:50:30.254Z,79.25
2019-01-15T14:53:27.315Z,79.22
2019-01-15T14:56:31.984Z,79.15
2019-01-15T14:59:26.071Z,79.64
2019-01-15T15:02:20.246Z,79.34
2019-01-15T15:05:27.478Z,79.89
2019-01-15T15:08:28.132Z,80.55
2019-01-15T15:11:25.605Z,80.77
2019-01-15T15:14:21.378Z,80.37
2019-01-15T15:17:19.520Z,80.29
2019-01-15T15:20:08.569Z,80.41
2019-01-15T15:23:02.832Z,80.42
2019-01-15T15:26:03.376Z,80.36
2019-01-15T15:29:02.459Z,80.68
2019-01-15T15:32:09.058Z,80.94
2019-01-15T15:35:03.743Z,80.73
2019-01-15T15:37:52.244Z,81.42
2019-01-15T15:40:42.635Z,81.04
2019-01-15T15:43:35.790Z,81.17
2019-01-15T15:46:28.876Z,81.06
2019-01-15T15:49:22.140Z,81.23
2019-01-15T15:52:11.487Z,80.90
2019-01-15T15:55:20.808Z,80.48
2019-01-15T15:58:11.956Z,80.60
2019-01-15T16:00:54.715Z,80.76
2019-01-15T16:03:39.350Z,80.88
2019-01-15T16:06:45.761Z,80.73
2019-01-15T16:09:37.657Z,79.09
2019-01-15T16:12:37.848Z,80.16
2019-01-15T16:15:27.903Z,79.92
2019-01-15T16:18:14.159Z,79.71
2019-01-15T16:21:00.560Z,79.54
2019-01-15T16:23:49.329Z,80.14
2019-01-15T16:26:35.866Z,78.98
2019-01-15T16:29:16.501Z,79.92
2019-01-15T16:32:12.401Z,79.57
2019-01-15T16:34:54.365Z,79.66
2019-01-15T16:37:33.243Z,80.23
2019-01-15T16:40:27.153Z,79.60
2019-01-15T16:43:24.196Z,79.61
2019-01-15T16:46:26.481Z,80.04
2019-01-15T16:49:12.346Z,80.05
2019-01-15T16:52:07.296Z,79.90
2019-01-15T16:54:53.200Z,79.84
2019-01-15T16:57:42.072Z,80.39
2019-01-15T17:00:36.672Z,80.14
2019-01-15T17:03:36.978Z,80.07
2019-01-15T17:06:16.956Z,80.23
2019-01-15T17:09:03.782Z,80.28
2019-01-15T17:11:48.499Z,80.32
2019-01-15T17:14:40.901Z,80.97
2019-01-15T17:17:37.067Z,80.69
2019-01-15T17:20:41.377Z,80.09
2019-01-15T17:23:24.487Z,80.87
2019-01-15T17:26:11.252Z,80.73
2019-01-15T17:29:02.031Z,80.68
2019-01-15T17:31:50.232Z,80.78
2019-01-15T17:34:43.860Z,80.96
2019-01-15T17:37:27.627Z,80.81
2019-01-15T17:40:17.396Z,80.72
2019-01-15T17:43:14.426Z,80.93
2019-01-15T17:45:54.960Z,81.07
2019-01-15T17:48:45.684Z,80.82
2019-01-15T17:51:23.856Z,80.94
2019-01-15T17:54:23.864Z,80.84
2019-01-15T17:57:10.497Z,81.32
2019-01-15T17:59:59.548Z,81.13
2019-01-15T18:05:50.394Z,80.90
2019-01-15T18:08:47.250Z,80.72
2019-01-15T18:11:37.991Z,81.13
2019-01-15T18:14:44.272Z,81.09
2019-01-15T18:17:40.989Z,81.11
2019-01-15T18:20:23.265Z,80.79
2019-01-15T18:23:14.105Z,80.69
2019-01-15T18:25:58.340Z,80.52
2019-01-15T18:28:49.087Z,80.56
2019-01-15T18:31:57.413Z,80.86
2019-01-15T18:34:41.787Z,81.33
2019-01-15T18:37:34.562Z,81.40
2019-01-15T18:40:43.846Z,80.90
2019-01-15T18:43:43.878Z,81.58
2019-01-15T18:46:34.036Z,81.44
2019-01-15T18:49:25.606Z,81.06
2019-01-15T18:52:12.776Z,80.92
2019-01-15T18:54:59.280Z,81.12
2019-01-15T18:57:45.971Z,81.05
2019-01-15T19:00:33.105Z,81.15
2019-01-15T19:03:30.808Z,81.29
2019-01-15T19:06:29.053Z,81.62
2019-01-15T19:09:17.193Z,81.56
2019-01-15T19:12:09.247Z,81.59
2019-01-15T19:14:52.441Z,81.04
2019-01-15T19:17:40.248Z,81.53
2019-01-15T19:20:34.406Z,81.41
2019-01-15T19:23:19.885Z,81.33
2019-01-15T19:26:17.950Z,81.46
2019-01-15T19:29:04.556Z,81.49
2019-01-15T19:31:55.345Z,81.36
2019-01-15T19:34:42.216Z,81.86
2019-01-15T19:37:45.031Z,82.03
2019-01-15T19:40:34.280Z,81.48
2019-01-15T19:43:25.210Z,81.91
2019-01-15T19:46:07.856Z,82.05
2019-01-15T19:49:04.333Z,81.85
2019-01-15T19:51:43.803Z,81.61
2019-01-15T19:54:34.603Z,81.80
2019-01-15T19:57:34.616Z,80.81
2019-01-15T20:00:26.503Z,79.79
2019-01-15T20:03:27.922Z,80.85
2019-01-15T20:06:14.235Z,80.58
2019-01-15T20:09:00.909Z,80.61
2019-01-15T20:12:03.563Z,81.18
2019-01-15T20:14:50.091Z,80.98
2019-01-15T20:17:43.993Z,80.96
2019-01-15T20:20:30.682Z,81.31
2019-01-15T20:23:24.934Z,81.20
2019-01-15T20:26:15.745Z,81.21
2019-01-15T20:29:02.640Z,80.92
2019-01-15T20:31:50.792Z,80.55
2019-01-15T20:34:50.765Z,80.60
2019-01-15T20:37:45.100Z,80.75
2019-01-15T20:40:31.679Z,80.87
2019-01-15T20:43:35.386Z,80.63
2019-01-15T20:46:19.003Z,80.25
2019-01-15T20:49:06.222Z,80.53
2019-01-15T20:52:14.566Z,80.48
2019-01-15T20:55:08.979Z,80.41
2019-01-15T20:58:08.931Z,80.38
2019-01-15T21:00:55.681Z,80.13
2019-01-15T21:03:52.677Z,80.18
2019-01-15T21:06:41.001Z,80.31
2019-01-15T21:09:34.856Z,80.31
2019-01-15T21:12:34.900Z,80.13
2019-01-15T21:15:24.900Z,80.11
2019-01-15T21:18:15.701Z,80.20
2019-01-15T21:21:02.357Z,80.23
2019-01-15T21:24:02.398Z,80.31
2019-01-15T21:26:47.619Z,80.16
2019-01-15T21:29:27.077Z,80.13
2019-01-15T21:32:13.853Z,79.14
2019-01-15T21:35:13.967Z,78.23
2019-01-15T21:38:00.869Z,77.14
2019-01-15T21:40:47.486Z,76.65
2019-01-15T21:43:47.610Z,76.27
2019-01-15T21:46:41.576Z,77.92
2019-01-15T21:49:22.581Z,77.51
2019-01-15T21:52:26.388Z,77.39
2019-01-15T21:55:15.347Z,76.69
2019-01-15T21:57:53.059Z,78.06
2019-01-15T22:00:43.894Z,78.65
2019-01-15T22:03:50.245Z,79.08
2019-01-15T22:06:53.534Z,78.60
2019-01-15T22:09:36.444Z,79.10
2019-01-15T22:12:35.222Z,79.35
2019-01-15T22:15:13.881Z,79.32
2019-01-15T22:18:10.577Z,79.30
2019-01-15T22:21:00.169Z,79.33
2019-01-15T22:24:03.019Z,79.44
2019-01-15T22:26:49.566Z,79.61
2019-01-15T22:29:43.374Z,78.96
2019-01-15T22:32:30.259Z,79.21
2019-01-15T22:35:33.353Z,79.00
2019-01-15T22:38:30.490Z,78.28
2019-01-15T22:41:22.866Z,77.51
2019-01-15T22:44:14.359Z,78.47
2019-01-15T22:47:11.208Z,78.43
2019-01-15T22:50:11.644Z,78.42
2019-01-15T22:52:58.356Z,78.78
2019-01-15T22:55:58.672Z,78.89
2019-01-15T22:58:49.614Z,79.04
2019-01-15T23:01:44.383Z,78.84
2019-01-15T23:04:32.446Z,78.88
2019-01-15T23:07:24.035Z,78.99
2019-01-15T23:10:01.340Z,79.24
2019-01-15T23:12:49.256Z,79.61
2019-01-15T23:15:26.869Z,78.33
2019-01-15T23:18:09.260Z,79.11
2019-01-15T23:20:55.629Z,79.10
2019-01-15T23:23:39.429Z,79.12
2019-01-15T23:26:17.089Z,79.21
2019-01-15T23:29:03.747Z,79.21
2019-01-15T23:32:06.714Z,79.15
2019-01-15T23:34:53.116Z,78.96
2019-01-15T23:37:35.707Z,78.93
2019-01-15T23:40:27.069Z,78.03
2019-01-15T23:43:13.845Z,78.40
2019-01-15T23:45:54.725Z,79.06
2019-01-15T23:48:48.458Z,79.01
2019-01-15T23:51:23.617Z,78.89
2019-01-15T23:54:10.156Z,78.86
2019-01-15T23:57:13.419Z,79.44
2019-01-15T23:59:57.060Z,79.94
